sensor_id;sensor_type;location;lat;lon;timestamp;temperature;humidity
19930;DHT22;10127;47.780;9.606;2023-07-31T00:00:28;16.60;99.90
19930;DHT22;10127;47.780;9.606;2023-07-31T00:02:54;16.70;99.90
19930;DHT22;10127;47.780;9.606;2023-07-31T00:05:20;16.70;99.90
19930;DHT22;10127;47.780;9.606;2023-07-31T00:07:46;16.70;99.90
19930;DHT22;10127;47.780;9.606;2023-07-31T00:10:12;16.60;99.90
19930;DHT22;10127;47.780;9.606;2023-07-31T00:12:42;16.50;99.90
19930;DHT22;10127;47.780;9.606;2023-07-31T00:15:08;16.40;99.90
19930;DHT22;10127;47.780;9.606;2023-07-31T00:17:34;16.40;99.90
19930;DHT22;10127;47.780;9.606;2023-07-31T00:20:00;16.40;99.90
19930;DHT22;10127;47.780;9.606;2023-07-31T00:22:25;16.50;99.90
19930;DHT22;10127;47.780;9.606;2023-07-31T00:24:51;16.50;99.90
19930;DHT22;10127;47.780;9.606;2023-07-31T00:27:17;16.60;99.90
19930;DHT22;10127;47.780;9.606;2023-07-31T00:29:42;16.60;99.90
19930;DHT22;10127;47.780;9.606;2023-07-31T00:32:14;16.50;99.90
19930;DHT22;10127;47.780;9.606;2023-07-31T00:34:40;16.40;99.90
19930;DHT22;10127;47.780;9.606;2023-07-31T00:37:05;16.50;99.90
19930;DHT22;10127;47.780;9.606;2023-07-31T00:39:31;16.50;99.90
19930;DHT22;10127;47.780;9.606;2023-07-31T00:41:57;16.50;99.90
19930;DHT22;10127;47.780;9.606;2023-07-31T00:44:22;16.60;99.90
19930;DHT22;10127;47.780;9.606;2023-07-31T00:46:48;16.50;99.90
19930;DHT22;10127;47.780;9.606;2023-07-31T00:49:15;16.40;99.90
19930;DHT22;10127;47.780;9.606;2023-07-31T00:51:41;16.50;99.90
19930;DHT22;10127;47.780;9.606;2023-07-31T00:54:06;16.40;99.90
19930;DHT22;10127;47.780;9.606;2023-07-31T00:56:32;16.40;99.90
19930;DHT22;10127;47.780;9.606;2023-07-31T00:58:58;16.40;99.90
19930;DHT22;10127;47.780;9.606;2023-07-31T01:01:24;16.40;99.90
19930;DHT22;10127;47.780;9.606;2023-07-31T01:03:52;16.40;99.90
19930;DHT22;10127;47.780;9.606;2023-07-31T01:06:33;16.40;99.90
19930;DHT22;10127;47.780;9.606;2023-07-31T01:09:29;16.30;99.90
19930;DHT22;10127;47.780;9.606;2023-07-31T01:12:07;16.30;99.90
19930;DHT22;10127;47.780;9.606;2023-07-31T01:14:33;16.30;99.90
19930;DHT22;10127;47.780;9.606;2023-07-31T01:16:58;16.30;99.90
19930;DHT22;10127;47.780;9.606;2023-07-31T01:19:25;16.30;99.90
19930;DHT22;10127;47.780;9.606;2023-07-31T01:22:07;16.30;99.90
19930;DHT22;10127;47.780;9.606;2023-07-31T01:25:18;16.30;99.90
19930;DHT22;10127;47.780;9.606;2023-07-31T01:28:05;16.10;99.90
19930;DHT22;10127;47.780;9.606;2023-07-31T01:30:34;15.90;99.90
19930;DHT22;10127;47.780;9.606;2023-07-31T01:33:03;16.00;99.90
19930;DHT22;10127;47.780;9.606;2023-07-31T01:35:37;15.90;99.90
19930;DHT22;10127;47.780;9.606;2023-07-31T01:38:04;16.00;99.90
19930;DHT22;10127;47.780;9.606;2023-07-31T01:40:30;16.00;99.90
19930;DHT22;10127;47.780;9.606;2023-07-31T01:42:56;15.90;99.90
19930;DHT22;10127;47.780;9.606;2023-07-31T01:45:21;15.90;99.90
19930;DHT22;10127;47.780;9.606;2023-07-31T01:47:47;15.90;99.90
19930;DHT22;10127;47.780;9.606;2023-07-31T01:50:12;15.80;99.90
19930;DHT22;10127;47.780;9.606;2023-07-31T01:52:38;15.70;99.90
19930;DHT22;10127;47.780;9.606;2023-07-31T01:55:04;15.70;99.90
19930;DHT22;10127;47.780;9.606;2023-07-31T01:57:29;15.80;99.90
19930;DHT22;10127;47.780;9.606;2023-07-31T01:59:55;15.80;99.90
19930;DHT22;10127;47.780;9.606;2023-07-31T02:02:21;15.80;99.90
19930;DHT22;10127;47.780;9.606;2023-07-31T02:04:48;15.80;99.90
19930;DHT22;10127;47.780;9.606;2023-07-31T02:07:14;15.70;99.90
19930;DHT22;10127;47.780;9.606;2023-07-31T02:09:40;15.70;99.90
19930;DHT22;10127;47.780;9.606;2023-07-31T02:12:05;15.60;99.90
19930;DHT22;10127;47.780;9.606;2023-07-31T02:14:34;15.60;99.90
19930;DHT22;10127;47.780;9.606;2023-07-31T02:16:59;15.60;99.90
19930;DHT22;10127;47.780;9.606;2023-07-31T02:19:25;15.60;99.90
19930;DHT22;10127;47.780;9.606;2023-07-31T02:21:51;15.60;99.90
19930;DHT22;10127;47.780;9.606;2023-07-31T02:24:16;15.50;99.90
19930;DHT22;10127;47.780;9.606;2023-07-31T02:26:42;15.50;99.90
19930;DHT22;10127;47.780;9.606;2023-07-31T02:29:08;15.50;99.90
19930;DHT22;10127;47.780;9.606;2023-07-31T02:31:34;15.70;99.90
19930;DHT22;10127;47.780;9.606;2023-07-31T02:33:59;15.60;99.90
19930;DHT22;10127;47.780;9.606;2023-07-31T02:36:25;15.60;99.90
19930;DHT22;10127;47.780;9.606;2023-07-31T02:38:51;15.70;99.90
19930;DHT22;10127;47.780;9.606;2023-07-31T02:41:17;15.80;99.90
19930;DHT22;10127;47.780;9.606;2023-07-31T02:43:42;15.90;99.90
19930;DHT22;10127;47.780;9.606;2023-07-31T02:46:08;16.00;99.90
19930;DHT22;10127;47.780;9.606;2023-07-31T02:48:34;16.10;99.90
19930;DHT22;10127;47.780;9.606;2023-07-31T02:50:59;16.10;99.90
19930;DHT22;10127;47.780;9.606;2023-07-31T02:53:25;16.10;99.90
19930;DHT22;10127;47.780;9.606;2023-07-31T02:55:50;16.10;99.90
19930;DHT22;10127;47.780;9.606;2023-07-31T02:58:16;16.10;99.90
19930;DHT22;10127;47.780;9.606;2023-07-31T03:00:42;16.10;99.90
19930;DHT22;10127;47.780;9.606;2023-07-31T03:03:08;16.20;99.90
19930;DHT22;10127;47.780;9.606;2023-07-31T03:05:34;16.10;99.90
19930;DHT22;10127;47.780;9.606;2023-07-31T03:07:59;16.10;99.90
19930;DHT22;10127;47.780;9.606;2023-07-31T03:10:25;16.20;99.90
19930;DHT22;10127;47.780;9.606;2023-07-31T03:12:51;16.10;99.90
19930;DHT22;10127;47.780;9.606;2023-07-31T03:15:16;16.00;99.90
19930;DHT22;10127;47.780;9.606;2023-07-31T03:17:42;15.90;99.90
19930;DHT22;10127;47.780;9.606;2023-07-31T03:20:08;15.90;99.90
19930;DHT22;10127;47.780;9.606;2023-07-31T03:22:34;16.10;99.90
19930;DHT22;10127;47.780;9.606;2023-07-31T03:25:03;16.10;99.90
19930;DHT22;10127;47.780;9.606;2023-07-31T03:27:29;16.10;99.90
19930;DHT22;10127;47.780;9.606;2023-07-31T03:29:55;16.00;99.90
19930;DHT22;10127;47.780;9.606;2023-07-31T03:32:20;16.00;99.90
19930;DHT22;10127;47.780;9.606;2023-07-31T03:34:46;16.00;99.90
19930;DHT22;10127;47.780;9.606;2023-07-31T03:37:11;15.90;99.90
19930;DHT22;10127;47.780;9.606;2023-07-31T03:39:37;15.80;99.90
19930;DHT22;10127;47.780;9.606;2023-07-31T03:42:03;15.80;99.90
19930;DHT22;10127;47.780;9.606;2023-07-31T03:44:28;15.90;99.90
19930;DHT22;10127;47.780;9.606;2023-07-31T03:46:54;15.90;99.90
19930;DHT22;10127;47.780;9.606;2023-07-31T03:49:20;16.00;99.90
19930;DHT22;10127;47.780;9.606;2023-07-31T03:51:46;16.00;99.90
19930;DHT22;10127;47.780;9.606;2023-07-31T03:54:11;16.10;99.90
19930;DHT22;10127;47.780;9.606;2023-07-31T03:56:38;16.10;99.90
19930;DHT22;10127;47.780;9.606;2023-07-31T03:59:04;16.00;99.90
19930;DHT22;10127;47.780;9.606;2023-07-31T04:01:30;16.00;99.90
19930;DHT22;10127;47.780;9.606;2023-07-31T04:03:55;15.90;99.90
19930;DHT22;10127;47.780;9.606;2023-07-31T04:06:21;16.00;99.90
19930;DHT22;10127;47.780;9.606;2023-07-31T04:08:46;16.10;99.90
19930;DHT22;10127;47.780;9.606;2023-07-31T04:11:12;16.10;99.90
19930;DHT22;10127;47.780;9.606;2023-07-31T04:13:38;16.30;99.90
19930;DHT22;10127;47.780;9.606;2023-07-31T04:16:04;16.30;99.90
19930;DHT22;10127;47.780;9.606;2023-07-31T04:18:30;16.20;99.90
19930;DHT22;10127;47.780;9.606;2023-07-31T04:20:56;16.20;99.90
19930;DHT22;10127;47.780;9.606;2023-07-31T04:23:24;16.40;99.90
19930;DHT22;10127;47.780;9.606;2023-07-31T04:25:49;16.30;99.90
19930;DHT22;10127;47.780;9.606;2023-07-31T04:28:15;16.30;99.90
19930;DHT22;10127;47.780;9.606;2023-07-31T04:30:41;16.40;99.90
19930;DHT22;10127;47.780;9.606;2023-07-31T04:33:07;16.30;99.90
19930;DHT22;10127;47.780;9.606;2023-07-31T04:35:32;16.30;99.90
19930;DHT22;10127;47.780;9.606;2023-07-31T04:37:58;16.30;99.90
19930;DHT22;10127;47.780;9.606;2023-07-31T04:40:24;16.30;99.90
19930;DHT22;10127;47.780;9.606;2023-07-31T04:42:50;16.30;99.90
19930;DHT22;10127;47.780;9.606;2023-07-31T04:45:15;16.40;99.90
19930;DHT22;10127;47.780;9.606;2023-07-31T04:47:41;16.50;99.90
19930;DHT22;10127;47.780;9.606;2023-07-31T04:50:07;16.60;99.90
19930;DHT22;10127;47.780;9.606;2023-07-31T04:52:33;16.60;99.90
19930;DHT22;10127;47.780;9.606;2023-07-31T04:54:58;16.70;99.90
19930;DHT22;10127;47.780;9.606;2023-07-31T04:57:24;16.80;99.90
19930;DHT22;10127;47.780;9.606;2023-07-31T04:59:49;17.00;99.90
19930;DHT22;10127;47.780;9.606;2023-07-31T05:02:15;17.10;99.90
19930;DHT22;10127;47.780;9.606;2023-07-31T05:04:41;17.30;99.90
19930;DHT22;10127;47.780;9.606;2023-07-31T05:07:06;17.40;99.90
19930;DHT22;10127;47.780;9.606;2023-07-31T05:09:32;17.50;99.90
19930;DHT22;10127;47.780;9.606;2023-07-31T05:11:58;17.50;99.90
19930;DHT22;10127;47.780;9.606;2023-07-31T05:14:23;17.50;99.90
19930;DHT22;10127;47.780;9.606;2023-07-31T05:16:49;17.50;99.90
19930;DHT22;10127;47.780;9.606;2023-07-31T05:19:15;17.50;99.90
19930;DHT22;10127;47.780;9.606;2023-07-31T05:21:40;17.50;99.90
19930;DHT22;10127;47.780;9.606;2023-07-31T05:24:06;17.60;99.90
19930;DHT22;10127;47.780;9.606;2023-07-31T05:26:32;17.80;99.90
19930;DHT22;10127;47.780;9.606;2023-07-31T05:28:57;18.40;99.90
19930;DHT22;10127;47.780;9.606;2023-07-31T05:31:23;19.00;99.90
19930;DHT22;10127;47.780;9.606;2023-07-31T05:33:50;18.90;99.90
19930;DHT22;10127;47.780;9.606;2023-07-31T05:36:16;18.80;99.90
19930;DHT22;10127;47.780;9.606;2023-07-31T05:38:42;18.70;99.90
19930;DHT22;10127;47.780;9.606;2023-07-31T05:41:10;18.60;99.90
19930;DHT22;10127;47.780;9.606;2023-07-31T05:43:36;18.50;99.90
19930;DHT22;10127;47.780;9.606;2023-07-31T05:46:01;18.40;99.90
19930;DHT22;10127;47.780;9.606;2023-07-31T05:48:27;18.30;99.90
19930;DHT22;10127;47.780;9.606;2023-07-31T05:50:53;18.30;99.90
19930;DHT22;10127;47.780;9.606;2023-07-31T05:53:18;18.30;99.90
19930;DHT22;10127;47.780;9.606;2023-07-31T05:55:44;18.40;99.90
19930;DHT22;10127;47.780;9.606;2023-07-31T05:58:09;18.30;99.90
19930;DHT22;10127;47.780;9.606;2023-07-31T06:00:35;18.20;99.90
19930;DHT22;10127;47.780;9.606;2023-07-31T06:03:01;18.10;99.90
19930;DHT22;10127;47.780;9.606;2023-07-31T06:05:27;18.10;99.90
19930;DHT22;10127;47.780;9.606;2023-07-31T06:07:55;18.10;99.90
19930;DHT22;10127;47.780;9.606;2023-07-31T06:10:21;18.20;99.90
19930;DHT22;10127;47.780;9.606;2023-07-31T06:12:46;18.10;99.90
19930;DHT22;10127;47.780;9.606;2023-07-31T06:15:12;18.20;99.90
19930;DHT22;10127;47.780;9.606;2023-07-31T06:17:38;18.20;99.90
19930;DHT22;10127;47.780;9.606;2023-07-31T06:20:05;18.30;99.90
19930;DHT22;10127;47.780;9.606;2023-07-31T06:22:31;18.40;99.90
19930;DHT22;10127;47.780;9.606;2023-07-31T06:24:57;18.40;99.90
19930;DHT22;10127;47.780;9.606;2023-07-31T06:27:22;18.50;99.90
19930;DHT22;10127;47.780;9.606;2023-07-31T06:29:48;18.50;99.90
19930;DHT22;10127;47.780;9.606;2023-07-31T06:32:14;18.40;99.90
19930;DHT22;10127;47.780;9.606;2023-07-31T06:34:39;18.60;99.90
19930;DHT22;10127;47.780;9.606;2023-07-31T06:37:05;18.70;99.90
19930;DHT22;10127;47.780;9.606;2023-07-31T06:39:31;18.90;99.90
19930;DHT22;10127;47.780;9.606;2023-07-31T06:41:56;19.10;99.90
19930;DHT22;10127;47.780;9.606;2023-07-31T06:44:22;19.10;99.90
19930;DHT22;10127;47.780;9.606;2023-07-31T06:46:47;19.10;99.90
19930;DHT22;10127;47.780;9.606;2023-07-31T06:49:13;19.30;99.90
19930;DHT22;10127;47.780;9.606;2023-07-31T06:51:40;19.20;99.90
19930;DHT22;10127;47.780;9.606;2023-07-31T06:54:07;19.30;99.90
19930;DHT22;10127;47.780;9.606;2023-07-31T06:56:33;19.30;99.90
19930;DHT22;10127;47.780;9.606;2023-07-31T06:58:58;19.30;99.90
19930;DHT22;10127;47.780;9.606;2023-07-31T07:01:24;19.30;99.90
19930;DHT22;10127;47.780;9.606;2023-07-31T07:03:49;19.30;99.90
19930;DHT22;10127;47.780;9.606;2023-07-31T07:06:17;19.20;99.90
19930;DHT22;10127;47.780;9.606;2023-07-31T07:08:43;19.20;99.90
19930;DHT22;10127;47.780;9.606;2023-07-31T07:11:08;19.10;99.90
19930;DHT22;10127;47.780;9.606;2023-07-31T07:13:34;19.10;99.90
19930;DHT22;10127;47.780;9.606;2023-07-31T07:16:00;19.00;99.90
19930;DHT22;10127;47.780;9.606;2023-07-31T07:18:25;19.00;99.90
19930;DHT22;10127;47.780;9.606;2023-07-31T07:20:52;19.10;99.90
19930;DHT22;10127;47.780;9.606;2023-07-31T07:23:19;19.20;99.90
19930;DHT22;10127;47.780;9.606;2023-07-31T07:25:46;19.30;99.90
19930;DHT22;10127;47.780;9.606;2023-07-31T07:28:13;19.40;99.90
19930;DHT22;10127;47.780;9.606;2023-07-31T07:30:39;19.40;99.90
19930;DHT22;10127;47.780;9.606;2023-07-31T07:33:05;19.50;99.90
19930;DHT22;10127;47.780;9.606;2023-07-31T07:35:33;19.50;99.90
19930;DHT22;10127;47.780;9.606;2023-07-31T07:37:59;19.60;99.90
19930;DHT22;10127;47.780;9.606;2023-07-31T07:40:26;19.70;99.90
19930;DHT22;10127;47.780;9.606;2023-07-31T07:42:51;19.90;99.90
19930;DHT22;10127;47.780;9.606;2023-07-31T07:45:17;20.00;99.90
19930;DHT22;10127;47.780;9.606;2023-07-31T07:47:43;20.10;99.90
19930;DHT22;10127;47.780;9.606;2023-07-31T07:50:08;20.00;99.90
19930;DHT22;10127;47.780;9.606;2023-07-31T07:52:34;20.10;99.90
19930;DHT22;10127;47.780;9.606;2023-07-31T07:55:00;20.10;99.90
19930;DHT22;10127;47.780;9.606;2023-07-31T07:57:26;20.10;99.90
19930;DHT22;10127;47.780;9.606;2023-07-31T07:59:52;20.00;99.90
19930;DHT22;10127;47.780;9.606;2023-07-31T08:02:17;20.10;99.70
19930;DHT22;10127;47.780;9.606;2023-07-31T08:04:43;20.10;99.90
19930;DHT22;10127;47.780;9.606;2023-07-31T08:07:11;20.10;99.90
19930;DHT22;10127;47.780;9.606;2023-07-31T08:09:40;20.20;99.60
19930;DHT22;10127;47.780;9.606;2023-07-31T08:12:06;20.20;99.50
19930;DHT22;10127;47.780;9.606;2023-07-31T08:14:32;20.40;98.80
19930;DHT22;10127;47.780;9.606;2023-07-31T08:16:58;20.40;98.90
19930;DHT22;10127;47.780;9.606;2023-07-31T08:19:24;20.20;99.40
19930;DHT22;10127;47.780;9.606;2023-07-31T08:21:49;20.30;98.90
19930;DHT22;10127;47.780;9.606;2023-07-31T08:24:15;20.50;99.30
19930;DHT22;10127;47.780;9.606;2023-07-31T08:26:40;20.70;98.60
19930;DHT22;10127;47.780;9.606;2023-07-31T08:29:06;20.80;98.40
19930;DHT22;10127;47.780;9.606;2023-07-31T08:31:32;20.80;97.80
19930;DHT22;10127;47.780;9.606;2023-07-31T08:33:57;20.70;97.70
19930;DHT22;10127;47.780;9.606;2023-07-31T08:36:23;20.50;97.80
19930;DHT22;10127;47.780;9.606;2023-07-31T08:38:49;20.20;98.40
19930;DHT22;10127;47.780;9.606;2023-07-31T08:41:15;20.10;98.60
19930;DHT22;10127;47.780;9.606;2023-07-31T08:43:45;20.00;98.80
19930;DHT22;10127;47.780;9.606;2023-07-31T08:46:11;20.00;99.00
19930;DHT22;10127;47.780;9.606;2023-07-31T08:48:37;20.00;99.10
19930;DHT22;10127;47.780;9.606;2023-07-31T08:51:04;20.00;98.70
19930;DHT22;10127;47.780;9.606;2023-07-31T08:53:30;20.10;98.60
19930;DHT22;10127;47.780;9.606;2023-07-31T08:55:57;20.40;98.20
19930;DHT22;10127;47.780;9.606;2023-07-31T08:58:24;20.50;97.80
19930;DHT22;10127;47.780;9.606;2023-07-31T09:00:51;20.50;97.30
19930;DHT22;10127;47.780;9.606;2023-07-31T09:03:18;20.30;97.90
19930;DHT22;10127;47.780;9.606;2023-07-31T09:05:46;20.10;98.20
19930;DHT22;10127;47.780;9.606;2023-07-31T09:08:13;20.10;98.00
19930;DHT22;10127;47.780;9.606;2023-07-31T09:10:45;20.00;97.90
19930;DHT22;10127;47.780;9.606;2023-07-31T09:13:12;20.00;97.40
19930;DHT22;10127;47.780;9.606;2023-07-31T09:15:39;20.20;97.00
19930;DHT22;10127;47.780;9.606;2023-07-31T09:18:06;20.20;97.80
19930;DHT22;10127;47.780;9.606;2023-07-31T09:20:32;20.30;96.60
19930;DHT22;10127;47.780;9.606;2023-07-31T09:23:10;20.30;96.20
19930;DHT22;10127;47.780;9.606;2023-07-31T09:25:37;20.40;96.50
19930;DHT22;10127;47.780;9.606;2023-07-31T09:28:05;20.40;96.40
19930;DHT22;10127;47.780;9.606;2023-07-31T09:30:31;20.50;96.00
19930;DHT22;10127;47.780;9.606;2023-07-31T09:33:02;20.60;96.40
19930;DHT22;10127;47.780;9.606;2023-07-31T09:35:32;20.70;96.00
19930;DHT22;10127;47.780;9.606;2023-07-31T09:40:51;20.90;95.30
19930;DHT22;10127;47.780;9.606;2023-07-31T09:43:20;21.00;95.50
19930;DHT22;10127;47.780;9.606;2023-07-31T09:45:47;21.20;95.40
19930;DHT22;10127;47.780;9.606;2023-07-31T09:48:17;21.50;94.50
19930;DHT22;10127;47.780;9.606;2023-07-31T09:50:45;22.00;94.20
19930;DHT22;10127;47.780;9.606;2023-07-31T09:53:10;22.00;93.50
19930;DHT22;10127;47.780;9.606;2023-07-31T09:55:37;22.10;93.00
19930;DHT22;10127;47.780;9.606;2023-07-31T09:58:05;22.10;92.80
19930;DHT22;10127;47.780;9.606;2023-07-31T10:00:31;22.20;92.90
19930;DHT22;10127;47.780;9.606;2023-07-31T10:03:02;22.40;92.20
19930;DHT22;10127;47.780;9.606;2023-07-31T10:05:40;22.30;91.90
19930;DHT22;10127;47.780;9.606;2023-07-31T10:08:09;22.20;92.50
19930;DHT22;10127;47.780;9.606;2023-07-31T10:10:36;22.10;92.10
19930;DHT22;10127;47.780;9.606;2023-07-31T10:13:09;22.20;92.50
19930;DHT22;10127;47.780;9.606;2023-07-31T10:15:36;22.10;92.80
19930;DHT22;10127;47.780;9.606;2023-07-31T10:18:02;21.90;92.40
19930;DHT22;10127;47.780;9.606;2023-07-31T10:20:31;21.90;93.00
19930;DHT22;10127;47.780;9.606;2023-07-31T10:22:57;21.60;93.90
19930;DHT22;10127;47.780;9.606;2023-07-31T10:25:26;21.40;94.70
19930;DHT22;10127;47.780;9.606;2023-07-31T10:27:58;21.30;94.20
19930;DHT22;10127;47.780;9.606;2023-07-31T10:30:27;21.30;94.50
19930;DHT22;10127;47.780;9.606;2023-07-31T10:32:53;21.50;93.80
19930;DHT22;10127;47.780;9.606;2023-07-31T10:35:20;21.80;94.00
19930;DHT22;10127;47.780;9.606;2023-07-31T10:37:47;22.00;93.10
19930;DHT22;10127;47.780;9.606;2023-07-31T10:40:19;22.00;92.60
19930;DHT22;10127;47.780;9.606;2023-07-31T10:42:56;22.00;92.60
19930;DHT22;10127;47.780;9.606;2023-07-31T10:45:36;21.90;92.70
19930;DHT22;10127;47.780;9.606;2023-07-31T10:48:22;21.50;94.20
19930;DHT22;10127;47.780;9.606;2023-07-31T10:50:50;21.40;93.60
19930;DHT22;10127;47.780;9.606;2023-07-31T10:53:33;21.30;94.20
19930;DHT22;10127;47.780;9.606;2023-07-31T10:56:07;21.60;94.10
19930;DHT22;10127;47.780;9.606;2023-07-31T10:58:34;21.90;93.30
19930;DHT22;10127;47.780;9.606;2023-07-31T11:01:06;22.40;92.90
19930;DHT22;10127;47.780;9.606;2023-07-31T11:06:08;22.70;92.00
19930;DHT22;10127;47.780;9.606;2023-07-31T11:08:36;22.70;92.50
19930;DHT22;10127;47.780;9.606;2023-07-31T11:11:08;22.80;90.50
19930;DHT22;10127;47.780;9.606;2023-07-31T11:13:45;22.90;90.60
19930;DHT22;10127;47.780;9.606;2023-07-31T11:16:12;23.10;90.10
19930;DHT22;10127;47.780;9.606;2023-07-31T11:18:43;23.20;90.40
19930;DHT22;10127;47.780;9.606;2023-07-31T11:21:12;23.20;89.70
19930;DHT22;10127;47.780;9.606;2023-07-31T11:23:38;23.10;88.90
19930;DHT22;10127;47.780;9.606;2023-07-31T11:26:05;23.10;90.40
19930;DHT22;10127;47.780;9.606;2023-07-31T11:28:33;23.30;89.80
19930;DHT22;10127;47.780;9.606;2023-07-31T11:31:03;23.40;89.90
19930;DHT22;10127;47.780;9.606;2023-07-31T11:33:28;23.30;90.00
19930;DHT22;10127;47.780;9.606;2023-07-31T11:35:54;23.00;90.40
19930;DHT22;10127;47.780;9.606;2023-07-31T11:38:23;23.10;90.40
19930;DHT22;10127;47.780;9.606;2023-07-31T11:40:50;23.10;90.90
19930;DHT22;10127;47.780;9.606;2023-07-31T11:43:15;22.70;91.00
19930;DHT22;10127;47.780;9.606;2023-07-31T11:45:48;22.80;91.30
19930;DHT22;10127;47.780;9.606;2023-07-31T11:48:21;22.90;90.90
19930;DHT22;10127;47.780;9.606;2023-07-31T11:50:49;23.00;91.50
19930;DHT22;10127;47.780;9.606;2023-07-31T11:53:16;23.10;91.40
19930;DHT22;10127;47.780;9.606;2023-07-31T11:55:43;23.20;91.20
19930;DHT22;10127;47.780;9.606;2023-07-31T11:58:09;23.10;90.90
19930;DHT22;10127;47.780;9.606;2023-07-31T12:00:35;23.00;89.80
19930;DHT22;10127;47.780;9.606;2023-07-31T12:03:01;23.00;90.10
19930;DHT22;10127;47.780;9.606;2023-07-31T12:05:27;23.10;90.20
19930;DHT22;10127;47.780;9.606;2023-07-31T12:07:54;23.50;86.30
19930;DHT22;10127;47.780;9.606;2023-07-31T12:13:07;24.20;88.20
19930;DHT22;10127;47.780;9.606;2023-07-31T12:15:41;24.20;90.10
19930;DHT22;10127;47.780;9.606;2023-07-31T12:18:14;23.90;86.40
19930;DHT22;10127;47.780;9.606;2023-07-31T12:20:56;23.70;86.10
19930;DHT22;10127;47.780;9.606;2023-07-31T12:23:31;23.90;86.50
19930;DHT22;10127;47.780;9.606;2023-07-31T12:26:02;24.10;85.30
19930;DHT22;10127;47.780;9.606;2023-07-31T12:28:28;24.20;85.30
19930;DHT22;10127;47.780;9.606;2023-07-31T12:30:57;24.20;87.90
19930;DHT22;10127;47.780;9.606;2023-07-31T12:33:27;24.20;85.50
19930;DHT22;10127;47.780;9.606;2023-07-31T12:35:55;24.00;85.30
19930;DHT22;10127;47.780;9.606;2023-07-31T12:38:22;23.90;85.60
19930;DHT22;10127;47.780;9.606;2023-07-31T12:40:47;23.80;85.30
19930;DHT22;10127;47.780;9.606;2023-07-31T12:43:13;24.00;83.70
19930;DHT22;10127;47.780;9.606;2023-07-31T12:45:39;24.40;84.70
19930;DHT22;10127;47.780;9.606;2023-07-31T12:48:04;24.50;84.60
19930;DHT22;10127;47.780;9.606;2023-07-31T12:50:30;24.70;84.00
19930;DHT22;10127;47.780;9.606;2023-07-31T12:52:56;24.30;81.50
19930;DHT22;10127;47.780;9.606;2023-07-31T12:55:23;24.40;81.00
19930;DHT22;10127;47.780;9.606;2023-07-31T12:57:49;24.50;82.20
19930;DHT22;10127;47.780;9.606;2023-07-31T13:00:15;24.90;80.50
19930;DHT22;10127;47.780;9.606;2023-07-31T13:02:41;24.80;79.80
19930;DHT22;10127;47.780;9.606;2023-07-31T13:05:07;24.70;79.60
19930;DHT22;10127;47.780;9.606;2023-07-31T13:07:33;24.60;79.50
19930;DHT22;10127;47.780;9.606;2023-07-31T13:09:58;24.50;79.40
19930;DHT22;10127;47.780;9.606;2023-07-31T13:12:24;24.60;79.40
19930;DHT22;10127;47.780;9.606;2023-07-31T13:14:50;24.70;76.70
19930;DHT22;10127;47.780;9.606;2023-07-31T13:17:16;24.70;78.00
19930;DHT22;10127;47.780;9.606;2023-07-31T13:19:41;24.90;76.80
19930;DHT22;10127;47.780;9.606;2023-07-31T13:22:08;25.30;77.20
19930;DHT22;10127;47.780;9.606;2023-07-31T13:24:33;25.70;76.20
19930;DHT22;10127;47.780;9.606;2023-07-31T13:26:59;25.80;74.90
19930;DHT22;10127;47.780;9.606;2023-07-31T13:29:24;25.90;75.00
19930;DHT22;10127;47.780;9.606;2023-07-31T13:31:51;26.00;75.60
19930;DHT22;10127;47.780;9.606;2023-07-31T13:34:17;26.10;75.20
19930;DHT22;10127;47.780;9.606;2023-07-31T13:36:43;26.00;76.10
19930;DHT22;10127;47.780;9.606;2023-07-31T13:39:08;25.90;73.90
19930;DHT22;10127;47.780;9.606;2023-07-31T13:41:34;25.90;73.40
19930;DHT22;10127;47.780;9.606;2023-07-31T13:44:00;25.80;73.80
19930;DHT22;10127;47.780;9.606;2023-07-31T13:46:26;25.70;74.00
19930;DHT22;10127;47.780;9.606;2023-07-31T13:48:51;25.60;75.70
19930;DHT22;10127;47.780;9.606;2023-07-31T13:51:21;25.70;76.60
19930;DHT22;10127;47.780;9.606;2023-07-31T13:53:46;25.60;74.80
19930;DHT22;10127;47.780;9.606;2023-07-31T13:56:12;25.60;74.40
19930;DHT22;10127;47.780;9.606;2023-07-31T13:58:38;25.60;75.00
19930;DHT22;10127;47.780;9.606;2023-07-31T14:01:03;25.40;75.50
19930;DHT22;10127;47.780;9.606;2023-07-31T14:03:31;25.30;76.00
19930;DHT22;10127;47.780;9.606;2023-07-31T14:05:56;25.30;76.70
19930;DHT22;10127;47.780;9.606;2023-07-31T14:08:22;25.60;75.80
19930;DHT22;10127;47.780;9.606;2023-07-31T14:10:48;25.60;75.00
19930;DHT22;10127;47.780;9.606;2023-07-31T14:13:13;25.50;74.20
19930;DHT22;10127;47.780;9.606;2023-07-31T14:15:42;25.60;74.30
19930;DHT22;10127;47.780;9.606;2023-07-31T14:18:08;25.80;76.10
19930;DHT22;10127;47.780;9.606;2023-07-31T14:20:34;25.60;75.10
19930;DHT22;10127;47.780;9.606;2023-07-31T14:22:59;25.70;74.90
19930;DHT22;10127;47.780;9.606;2023-07-31T14:25:25;25.80;75.80
19930;DHT22;10127;47.780;9.606;2023-07-31T14:27:51;25.70;76.70
19930;DHT22;10127;47.780;9.606;2023-07-31T14:30:16;25.70;74.50
19930;DHT22;10127;47.780;9.606;2023-07-31T14:32:44;25.90;74.90
19930;DHT22;10127;47.780;9.606;2023-07-31T14:35:09;26.10;74.70
19930;DHT22;10127;47.780;9.606;2023-07-31T14:37:42;26.20;74.20
19930;DHT22;10127;47.780;9.606;2023-07-31T14:40:10;26.40;74.70
19930;DHT22;10127;47.780;9.606;2023-07-31T14:42:36;26.50;73.30
19930;DHT22;10127;47.780;9.606;2023-07-31T14:45:03;26.80;73.60
19930;DHT22;10127;47.780;9.606;2023-07-31T14:47:29;26.80;73.70
19930;DHT22;10127;47.780;9.606;2023-07-31T14:49:56;26.80;74.90
19930;DHT22;10127;47.780;9.606;2023-07-31T14:52:22;26.90;72.60
19930;DHT22;10127;47.780;9.606;2023-07-31T14:54:47;27.00;74.60
19930;DHT22;10127;47.780;9.606;2023-07-31T14:57:13;27.10;72.90
19930;DHT22;10127;47.780;9.606;2023-07-31T14:59:38;27.00;72.70
19930;DHT22;10127;47.780;9.606;2023-07-31T15:02:04;26.80;74.30
19930;DHT22;10127;47.780;9.606;2023-07-31T15:04:30;27.00;73.10
19930;DHT22;10127;47.780;9.606;2023-07-31T15:06:56;27.00;72.70
19930;DHT22;10127;47.780;9.606;2023-07-31T15:09:21;26.60;73.60
19930;DHT22;10127;47.780;9.606;2023-07-31T15:11:47;26.70;73.20
19930;DHT22;10127;47.780;9.606;2023-07-31T15:14:13;26.80;73.40
19930;DHT22;10127;47.780;9.606;2023-07-31T15:16:38;26.80;72.90
19930;DHT22;10127;47.780;9.606;2023-07-31T15:19:04;26.70;74.30
19930;DHT22;10127;47.780;9.606;2023-07-31T15:21:30;26.40;75.00
19930;DHT22;10127;47.780;9.606;2023-07-31T15:23:56;26.30;75.00
19930;DHT22;10127;47.780;9.606;2023-07-31T15:26:21;26.30;76.00
19930;DHT22;10127;47.780;9.606;2023-07-31T15:28:50;26.50;75.80
19930;DHT22;10127;47.780;9.606;2023-07-31T15:31:19;26.70;75.10
19930;DHT22;10127;47.780;9.606;2023-07-31T15:33:45;26.80;74.50
19930;DHT22;10127;47.780;9.606;2023-07-31T15:36:10;26.80;74.10